Albany, New York
Traffic Map
Current Weather Conditions
Albany, New York
Few Clouds Light Fog
Few Clouds

Feels Like: 7°
Wind Chill: Ceiling: Unl
Heat Index: Visibility: 10mi
Dew Point: Wind: 0mph
Humidity: 90% Direction: ° ()
Pressure: 29.88in Gusts: 0mph
Raw Report DataKALB 240551Z 00000KT 10SM BCFG FEW047 07/06 A2988 RMK AO2 SLP118 BCFG SW-W T00720056 10172 20061 51012
Traffic Incident Summary
Active as of:
Severity:
Category:
InformationThere was an issue retrieving the traffic information for this location. Please try a different location or try again shortly.
Advertisements
Track Severe Weather on mobile